Terminal Aerodrome Forecast
Issued by NWS

Home | Current Version | Previous Version | Text Only | Print | Product List | Glossary On
Versions: 1 2 3 4 5 6 7 8 9 10 11 12 13 14 15 16 17 18 19 20 21 22 23 24 25 26 27 28 29 30 31 32 33 34
000
FTUS43 KDLH 021100
TAFBRD
TAF
KBRD 021137Z 0212/0312 VRB03KT 6SM BR SCT120
      TEMPO 0212/0213 2SM BR
     FM021400 22004KT P6SM FEW100
     FM021700 25010KT P6SM SCT050
     FM022000 24009KT P6SM VCSH BKN070
     FM030200 19003KT P6SM SCT070=

USA.gov is the U.S. government's official web portal to all federal, state and local government web resources and services.